sensor_id;sensor_type;location;lat;lon;timestamp;P1;durP1;ratioP1;P2;durP2;ratioP2
70148;SDS011;57514;52.164;5.282;2023-08-06T00:00:00;15.07;;;8.65;;
70148;SDS011;57514;52.164;5.282;2023-08-06T00:02:26;18.60;;;8.63;;
70148;SDS011;57514;52.164;5.282;2023-08-06T00:04:54;14.93;;;7.47;;
70148;SDS011;57514;52.164;5.282;2023-08-06T00:07:20;14.88;;;7.50;;
70148;SDS011;57514;52.164;5.282;2023-08-06T00:09:48;14.48;;;7.45;;
70148;SDS011;57514;52.164;5.282;2023-08-06T00:12:15;16.40;;;8.20;;
70148;SDS011;57514;52.164;5.282;2023-08-06T00:14:43;18.38;;;9.13;;
70148;SDS011;57514;52.164;5.282;2023-08-06T00:17:11;16.45;;;7.97;;
70148;SDS011;57514;52.164;5.282;2023-08-06T00:19:39;16.95;;;7.10;;
70148;SDS011;57514;52.164;5.282;2023-08-06T00:22:06;14.60;;;6.57;;
70148;SDS011;57514;52.164;5.282;2023-08-06T00:24:34;15.25;;;7.65;;
70148;SDS011;57514;52.164;5.282;2023-08-06T00:27:01;16.35;;;8.38;;
70148;SDS011;57514;52.164;5.282;2023-08-06T00:29:29;16.38;;;7.57;;
70148;SDS011;57514;52.164;5.282;2023-08-06T00:31:56;20.90;;;8.73;;
70148;SDS011;57514;52.164;5.282;2023-08-06T00:34:24;15.23;;;7.45;;
70148;SDS011;57514;52.164;5.282;2023-08-06T00:36:51;15.35;;;8.07;;
70148;SDS011;57514;52.164;5.282;2023-08-06T00:39:20;15.80;;;7.60;;
70148;SDS011;57514;52.164;5.282;2023-08-06T00:41:48;17.73;;;9.45;;
70148;SDS011;57514;52.164;5.282;2023-08-06T00:44:16;17.00;;;8.38;;
70148;SDS011;57514;52.164;5.282;2023-08-06T00:46:44;15.98;;;7.78;;
70148;SDS011;57514;52.164;5.282;2023-08-06T00:49:11;16.30;;;8.10;;
70148;SDS011;57514;52.164;5.282;2023-08-06T00:51:38;15.32;;;6.95;;
70148;SDS011;57514;52.164;5.282;2023-08-06T00:54:06;17.80;;;7.93;;
70148;SDS011;57514;52.164;5.282;2023-08-06T00:56:34;14.65;;;6.97;;
70148;SDS011;57514;52.164;5.282;2023-08-06T00:59:04;16.20;;;8.35;;
70148;SDS011;57514;52.164;5.282;2023-08-06T01:01:32;18.90;;;7.57;;
70148;SDS011;57514;52.164;5.282;2023-08-06T01:03:59;17.17;;;7.43;;
70148;SDS011;57514;52.164;5.282;2023-08-06T01:06:47;18.58;;;9.02;;
70148;SDS011;57514;52.164;5.282;2023-08-06T01:11:53;15.18;;;7.53;;
70148;SDS011;57514;52.164;5.282;2023-08-06T01:14:30;15.13;;;8.75;;
70148;SDS011;57514;52.164;5.282;2023-08-06T01:17:22;14.23;;;7.38;;
70148;SDS011;57514;52.164;5.282;2023-08-06T01:19:50;15.77;;;7.63;;
70148;SDS011;57514;52.164;5.282;2023-08-06T01:22:17;15.15;;;8.65;;
70148;SDS011;57514;52.164;5.282;2023-08-06T01:24:46;17.40;;;8.27;;
70148;SDS011;57514;52.164;5.282;2023-08-06T01:27:17;16.05;;;8.00;;
70148;SDS011;57514;52.164;5.282;2023-08-06T01:29:48;16.88;;;8.40;;
70148;SDS011;57514;52.164;5.282;2023-08-06T01:32:29;17.38;;;8.73;;
70148;SDS011;57514;52.164;5.282;2023-08-06T01:35:00;17.35;;;8.90;;
70148;SDS011;57514;52.164;5.282;2023-08-06T01:37:28;16.88;;;8.20;;
70148;SDS011;57514;52.164;5.282;2023-08-06T01:39:55;16.08;;;8.13;;
70148;SDS011;57514;52.164;5.282;2023-08-06T01:42:23;16.83;;;8.32;;
70148;SDS011;57514;52.164;5.282;2023-08-06T01:44:51;15.48;;;8.60;;
70148;SDS011;57514;52.164;5.282;2023-08-06T01:47:18;16.35;;;8.15;;
70148;SDS011;57514;52.164;5.282;2023-08-06T01:49:45;18.60;;;8.10;;
70148;SDS011;57514;52.164;5.282;2023-08-06T01:52:12;16.80;;;8.38;;
70148;SDS011;57514;52.164;5.282;2023-08-06T01:54:39;15.95;;;8.20;;
70148;SDS011;57514;52.164;5.282;2023-08-06T01:57:07;16.60;;;8.15;;
70148;SDS011;57514;52.164;5.282;2023-08-06T01:59:34;18.75;;;8.73;;
70148;SDS011;57514;52.164;5.282;2023-08-06T02:02:02;19.13;;;9.18;;
70148;SDS011;57514;52.164;5.282;2023-08-06T02:04:29;18.85;;;8.55;;
70148;SDS011;57514;52.164;5.282;2023-08-06T02:06:56;19.33;;;8.65;;
70148;SDS011;57514;52.164;5.282;2023-08-06T02:09:23;19.52;;;8.52;;
70148;SDS011;57514;52.164;5.282;2023-08-06T02:11:51;17.05;;;8.60;;
70148;SDS011;57514;52.164;5.282;2023-08-06T02:14:19;17.90;;;8.88;;
70148;SDS011;57514;52.164;5.282;2023-08-06T02:16:46;17.00;;;9.07;;
70148;SDS011;57514;52.164;5.282;2023-08-06T02:19:13;19.52;;;11.02;;
70148;SDS011;57514;52.164;5.282;2023-08-06T02:21:40;22.52;;;11.35;;
70148;SDS011;57514;52.164;5.282;2023-08-06T02:24:08;18.05;;;9.73;;
70148;SDS011;57514;52.164;5.282;2023-08-06T02:26:35;19.00;;;11.00;;
70148;SDS011;57514;52.164;5.282;2023-08-06T02:29:02;19.52;;;10.02;;
70148;SDS011;57514;52.164;5.282;2023-08-06T02:31:30;19.40;;;10.13;;
70148;SDS011;57514;52.164;5.282;2023-08-06T02:33:57;20.42;;;11.25;;
70148;SDS011;57514;52.164;5.282;2023-08-06T02:36:24;22.17;;;11.02;;
70148;SDS011;57514;52.164;5.282;2023-08-06T02:38:58;22.60;;;10.38;;
70148;SDS011;57514;52.164;5.282;2023-08-06T02:41:25;21.50;;;10.20;;
70148;SDS011;57514;52.164;5.282;2023-08-06T02:43:52;21.70;;;11.15;;
70148;SDS011;57514;52.164;5.282;2023-08-06T02:46:21;20.75;;;11.02;;
70148;SDS011;57514;52.164;5.282;2023-08-06T02:48:49;22.42;;;10.88;;
70148;SDS011;57514;52.164;5.282;2023-08-06T02:51:16;22.40;;;11.77;;
70148;SDS011;57514;52.164;5.282;2023-08-06T02:53:43;21.63;;;11.68;;
70148;SDS011;57514;52.164;5.282;2023-08-06T02:56:13;21.08;;;10.75;;
70148;SDS011;57514;52.164;5.282;2023-08-06T02:58:59;20.40;;;10.15;;
70148;SDS011;57514;52.164;5.282;2023-08-06T03:01:40;21.98;;;10.52;;
70148;SDS011;57514;52.164;5.282;2023-08-06T03:04:16;23.17;;;10.57;;
70148;SDS011;57514;52.164;5.282;2023-08-06T03:06:46;21.45;;;10.50;;
70148;SDS011;57514;52.164;5.282;2023-08-06T03:09:13;22.58;;;10.52;;
70148;SDS011;57514;52.164;5.282;2023-08-06T03:11:41;19.50;;;9.73;;
70148;SDS011;57514;52.164;5.282;2023-08-06T03:14:12;21.92;;;10.93;;
70148;SDS011;57514;52.164;5.282;2023-08-06T03:16:39;19.13;;;9.65;;
70148;SDS011;57514;52.164;5.282;2023-08-06T03:19:07;19.65;;;9.73;;
70148;SDS011;57514;52.164;5.282;2023-08-06T03:21:34;18.80;;;10.02;;
70148;SDS011;57514;52.164;5.282;2023-08-06T03:24:02;18.75;;;9.60;;
70148;SDS011;57514;52.164;5.282;2023-08-06T03:26:32;18.92;;;11.02;;
70148;SDS011;57514;52.164;5.282;2023-08-06T03:29:00;18.33;;;8.85;;
70148;SDS011;57514;52.164;5.282;2023-08-06T03:31:31;19.77;;;9.60;;
70148;SDS011;57514;52.164;5.282;2023-08-06T03:33:58;25.83;;;11.02;;
70148;SDS011;57514;52.164;5.282;2023-08-06T03:36:28;20.38;;;10.35;;
70148;SDS011;57514;52.164;5.282;2023-08-06T03:38:55;18.50;;;9.88;;
70148;SDS011;57514;52.164;5.282;2023-08-06T03:41:22;19.05;;;9.73;;
70148;SDS011;57514;52.164;5.282;2023-08-06T03:43:49;19.27;;;9.35;;
70148;SDS011;57514;52.164;5.282;2023-08-06T03:46:23;18.30;;;9.02;;
70148;SDS011;57514;52.164;5.282;2023-08-06T03:48:52;19.63;;;9.43;;
70148;SDS011;57514;52.164;5.282;2023-08-06T03:51:19;22.40;;;10.75;;
70148;SDS011;57514;52.164;5.282;2023-08-06T03:53:47;22.15;;;10.05;;
70148;SDS011;57514;52.164;5.282;2023-08-06T03:56:14;22.58;;;11.13;;
70148;SDS011;57514;52.164;5.282;2023-08-06T03:58:42;19.38;;;10.77;;
70148;SDS011;57514;52.164;5.282;2023-08-06T04:01:09;21.33;;;10.20;;
70148;SDS011;57514;52.164;5.282;2023-08-06T04:03:41;23.20;;;10.57;;
70148;SDS011;57514;52.164;5.282;2023-08-06T04:06:09;20.75;;;10.13;;
70148;SDS011;57514;52.164;5.282;2023-08-06T04:08:36;22.90;;;10.63;;
70148;SDS011;57514;52.164;5.282;2023-08-06T04:11:03;18.65;;;8.63;;
70148;SDS011;57514;52.164;5.282;2023-08-06T04:13:31;17.13;;;9.10;;
70148;SDS011;57514;52.164;5.282;2023-08-06T04:16:01;18.05;;;8.55;;
70148;SDS011;57514;52.164;5.282;2023-08-06T04:18:30;18.63;;;9.20;;
70148;SDS011;57514;52.164;5.282;2023-08-06T04:20:57;19.83;;;9.57;;
70148;SDS011;57514;52.164;5.282;2023-08-06T04:23:25;14.88;;;7.07;;
70148;SDS011;57514;52.164;5.282;2023-08-06T04:25:56;15.77;;;7.90;;
70148;SDS011;57514;52.164;5.282;2023-08-06T04:28:27;17.70;;;7.85;;
70148;SDS011;57514;52.164;5.282;2023-08-06T04:30:54;15.30;;;7.65;;
70148;SDS011;57514;52.164;5.282;2023-08-06T04:33:21;19.17;;;9.45;;
70148;SDS011;57514;52.164;5.282;2023-08-06T04:35:53;19.83;;;9.65;;
70148;SDS011;57514;52.164;5.282;2023-08-06T04:38:23;19.35;;;9.18;;
70148;SDS011;57514;52.164;5.282;2023-08-06T04:40:52;20.67;;;9.65;;
70148;SDS011;57514;52.164;5.282;2023-08-06T04:43:21;19.88;;;9.32;;
70148;SDS011;57514;52.164;5.282;2023-08-06T04:45:49;23.50;;;10.80;;
70148;SDS011;57514;52.164;5.282;2023-08-06T04:48:17;22.88;;;10.50;;
70148;SDS011;57514;52.164;5.282;2023-08-06T04:50:46;24.77;;;11.43;;
70148;SDS011;57514;52.164;5.282;2023-08-06T04:53:13;24.05;;;11.43;;
70148;SDS011;57514;52.164;5.282;2023-08-06T04:55:41;25.50;;;11.73;;
70148;SDS011;57514;52.164;5.282;2023-08-06T04:58:09;27.55;;;11.63;;
70148;SDS011;57514;52.164;5.282;2023-08-06T05:00:36;24.40;;;11.02;;
70148;SDS011;57514;52.164;5.282;2023-08-06T05:03:04;24.63;;;11.27;;
70148;SDS011;57514;52.164;5.282;2023-08-06T05:05:31;23.77;;;10.70;;
70148;SDS011;57514;52.164;5.282;2023-08-06T05:07:59;24.55;;;10.43;;
70148;SDS011;57514;52.164;5.282;2023-08-06T05:10:25;23.52;;;11.40;;
70148;SDS011;57514;52.164;5.282;2023-08-06T05:12:53;23.80;;;11.07;;
70148;SDS011;57514;52.164;5.282;2023-08-06T05:15:20;26.05;;;11.00;;
70148;SDS011;57514;52.164;5.282;2023-08-06T05:17:47;23.98;;;12.07;;
70148;SDS011;57514;52.164;5.282;2023-08-06T05:20:15;24.67;;;12.27;;
70148;SDS011;57514;52.164;5.282;2023-08-06T05:22:43;25.20;;;12.20;;
70148;SDS011;57514;52.164;5.282;2023-08-06T05:25:13;29.58;;;12.40;;
70148;SDS011;57514;52.164;5.282;2023-08-06T05:27:40;25.42;;;12.63;;
70148;SDS011;57514;52.164;5.282;2023-08-06T05:30:07;30.77;;;12.18;;
70148;SDS011;57514;52.164;5.282;2023-08-06T05:32:35;24.98;;;11.18;;
70148;SDS011;57514;52.164;5.282;2023-08-06T05:35:02;28.20;;;12.95;;
70148;SDS011;57514;52.164;5.282;2023-08-06T05:37:30;26.50;;;11.88;;
70148;SDS011;57514;52.164;5.282;2023-08-06T05:39:57;27.77;;;12.10;;
70148;SDS011;57514;52.164;5.282;2023-08-06T05:42:24;28.98;;;11.95;;
70148;SDS011;57514;52.164;5.282;2023-08-06T05:44:51;26.55;;;12.07;;
70148;SDS011;57514;52.164;5.282;2023-08-06T05:47:19;27.17;;;12.55;;
70148;SDS011;57514;52.164;5.282;2023-08-06T05:49:46;28.98;;;12.73;;
70148;SDS011;57514;52.164;5.282;2023-08-06T05:52:13;25.00;;;12.00;;
70148;SDS011;57514;52.164;5.282;2023-08-06T05:54:41;32.00;;;12.82;;
70148;SDS011;57514;52.164;5.282;2023-08-06T05:57:08;28.15;;;13.07;;
70148;SDS011;57514;52.164;5.282;2023-08-06T05:59:35;29.30;;;12.48;;
70148;SDS011;57514;52.164;5.282;2023-08-06T06:02:03;27.85;;;12.02;;
70148;SDS011;57514;52.164;5.282;2023-08-06T06:04:30;28.58;;;12.27;;
70148;SDS011;57514;52.164;5.282;2023-08-06T06:06:57;29.27;;;12.80;;
70148;SDS011;57514;52.164;5.282;2023-08-06T06:09:24;29.67;;;13.40;;
70148;SDS011;57514;52.164;5.282;2023-08-06T06:11:51;25.52;;;12.27;;
70148;SDS011;57514;52.164;5.282;2023-08-06T06:14:19;28.35;;;12.05;;
70148;SDS011;57514;52.164;5.282;2023-08-06T06:16:46;26.98;;;12.07;;
70148;SDS011;57514;52.164;5.282;2023-08-06T06:19:14;31.45;;;13.30;;
70148;SDS011;57514;52.164;5.282;2023-08-06T06:21:41;27.77;;;12.20;;
70148;SDS011;57514;52.164;5.282;2023-08-06T06:24:08;30.02;;;12.18;;
70148;SDS011;57514;52.164;5.282;2023-08-06T06:26:35;29.10;;;12.50;;
70148;SDS011;57514;52.164;5.282;2023-08-06T06:29:02;26.50;;;11.90;;
70148;SDS011;57514;52.164;5.282;2023-08-06T06:31:33;31.98;;;13.52;;
70148;SDS011;57514;52.164;5.282;2023-08-06T06:34:00;30.08;;;12.35;;
70148;SDS011;57514;52.164;5.282;2023-08-06T06:36:28;27.85;;;12.48;;
70148;SDS011;57514;52.164;5.282;2023-08-06T06:38:55;28.95;;;12.75;;
70148;SDS011;57514;52.164;5.282;2023-08-06T06:41:23;31.20;;;13.40;;
70148;SDS011;57514;52.164;5.282;2023-08-06T06:43:50;27.10;;;11.93;;
70148;SDS011;57514;52.164;5.282;2023-08-06T06:46:17;27.25;;;13.07;;
70148;SDS011;57514;52.164;5.282;2023-08-06T06:48:44;25.73;;;11.18;;
70148;SDS011;57514;52.164;5.282;2023-08-06T06:51:12;27.40;;;10.43;;
70148;SDS011;57514;52.164;5.282;2023-08-06T06:53:39;20.05;;;8.80;;
70148;SDS011;57514;52.164;5.282;2023-08-06T06:56:06;11.73;;;4.90;;
70148;SDS011;57514;52.164;5.282;2023-08-06T06:58:33;10.63;;;4.18;;
70148;SDS011;57514;52.164;5.282;2023-08-06T07:01:00;12.38;;;4.10;;
70148;SDS011;57514;52.164;5.282;2023-08-06T07:03:28;9.90;;;3.47;;
70148;SDS011;57514;52.164;5.282;2023-08-06T07:05:58;9.38;;;3.60;;
70148;SDS011;57514;52.164;5.282;2023-08-06T07:08:26;8.40;;;3.30;;
70148;SDS011;57514;52.164;5.282;2023-08-06T07:11:01;8.35;;;2.75;;
70148;SDS011;57514;52.164;5.282;2023-08-06T07:13:32;4.57;;;2.30;;
70148;SDS011;57514;52.164;5.282;2023-08-06T07:16:00;6.00;;;2.30;;
70148;SDS011;57514;52.164;5.282;2023-08-06T07:18:27;5.57;;;2.40;;
70148;SDS011;57514;52.164;5.282;2023-08-06T07:20:54;5.22;;;2.15;;
70148;SDS011;57514;52.164;5.282;2023-08-06T07:23:22;5.68;;;2.40;;
70148;SDS011;57514;52.164;5.282;2023-08-06T07:25:52;5.88;;;2.20;;
70148;SDS011;57514;52.164;5.282;2023-08-06T07:28:19;5.28;;;2.40;;
70148;SDS011;57514;52.164;5.282;2023-08-06T07:30:46;4.82;;;2.33;;
70148;SDS011;57514;52.164;5.282;2023-08-06T07:33:14;5.70;;;2.30;;
70148;SDS011;57514;52.164;5.282;2023-08-06T07:35:41;5.35;;;2.30;;
70148;SDS011;57514;52.164;5.282;2023-08-06T07:38:09;6.22;;;2.70;;
70148;SDS011;57514;52.164;5.282;2023-08-06T07:40:38;6.88;;;2.40;;
70148;SDS011;57514;52.164;5.282;2023-08-06T07:43:05;4.20;;;2.17;;
70148;SDS011;57514;52.164;5.282;2023-08-06T07:45:33;6.57;;;2.60;;
70148;SDS011;57514;52.164;5.282;2023-08-06T07:48:01;3.97;;;2.03;;
70148;SDS011;57514;52.164;5.282;2023-08-06T07:50:28;6.68;;;2.90;;
70148;SDS011;57514;52.164;5.282;2023-08-06T07:52:55;4.95;;;2.60;;
70148;SDS011;57514;52.164;5.282;2023-08-06T07:55:22;5.75;;;2.50;;
70148;SDS011;57514;52.164;5.282;2023-08-06T07:57:50;6.65;;;2.10;;
70148;SDS011;57514;52.164;5.282;2023-08-06T08:00:17;4.28;;;2.28;;
70148;SDS011;57514;52.164;5.282;2023-08-06T08:02:45;5.40;;;2.80;;
70148;SDS011;57514;52.164;5.282;2023-08-06T08:05:12;6.13;;;2.97;;
70148;SDS011;57514;52.164;5.282;2023-08-06T08:07:39;5.28;;;2.38;;
70148;SDS011;57514;52.164;5.282;2023-08-06T08:10:07;6.03;;;2.53;;
70148;SDS011;57514;52.164;5.282;2023-08-06T08:12:34;5.60;;;2.45;;
70148;SDS011;57514;52.164;5.282;2023-08-06T08:15:01;5.65;;;2.42;;
70148;SDS011;57514;52.164;5.282;2023-08-06T08:17:29;7.20;;;3.03;;
70148;SDS011;57514;52.164;5.282;2023-08-06T08:19:57;7.28;;;2.90;;
70148;SDS011;57514;52.164;5.282;2023-08-06T08:22:24;8.82;;;3.03;;
70148;SDS011;57514;52.164;5.282;2023-08-06T08:24:51;6.45;;;2.83;;
70148;SDS011;57514;52.164;5.282;2023-08-06T08:27:18;6.82;;;2.80;;
70148;SDS011;57514;52.164;5.282;2023-08-06T08:29:46;6.03;;;2.72;;
70148;SDS011;57514;52.164;5.282;2023-08-06T08:32:13;6.60;;;2.80;;
70148;SDS011;57514;52.164;5.282;2023-08-06T08:34:40;7.72;;;3.03;;
70148;SDS011;57514;52.164;5.282;2023-08-06T08:37:08;7.25;;;2.80;;
70148;SDS011;57514;52.164;5.282;2023-08-06T08:39:35;9.07;;;3.20;;
70148;SDS011;57514;52.164;5.282;2023-08-06T08:42:03;7.25;;;3.20;;
70148;SDS011;57514;52.164;5.282;2023-08-06T08:44:30;8.00;;;2.83;;
70148;SDS011;57514;52.164;5.282;2023-08-06T08:47:01;10.20;;;2.97;;
70148;SDS011;57514;52.164;5.282;2023-08-06T08:49:28;7.72;;;3.10;;
70148;SDS011;57514;52.164;5.282;2023-08-06T08:51:56;8.93;;;3.17;;
70148;SDS011;57514;52.164;5.282;2023-08-06T08:54:25;8.88;;;3.70;;
70148;SDS011;57514;52.164;5.282;2023-08-06T08:56:53;8.75;;;3.30;;
70148;SDS011;57514;52.164;5.282;2023-08-06T08:59:21;9.48;;;3.63;;
70148;SDS011;57514;52.164;5.282;2023-08-06T09:01:48;10.52;;;4.25;;
70148;SDS011;57514;52.164;5.282;2023-08-06T09:04:20;8.25;;;3.67;;
70148;SDS011;57514;52.164;5.282;2023-08-06T09:06:50;9.43;;;3.67;;
70148;SDS011;57514;52.164;5.282;2023-08-06T09:09:22;8.77;;;3.53;;
70148;SDS011;57514;52.164;5.282;2023-08-06T09:12:01;10.07;;;3.80;;
70148;SDS011;57514;52.164;5.282;2023-08-06T09:14:31;7.95;;;3.60;;
70148;SDS011;57514;52.164;5.282;2023-08-06T09:16:59;8.48;;;3.53;;
70148;SDS011;57514;52.164;5.282;2023-08-06T09:19:27;9.32;;;3.60;;
70148;SDS011;57514;52.164;5.282;2023-08-06T09:21:55;12.05;;;4.03;;
70148;SDS011;57514;52.164;5.282;2023-08-06T09:24:22;9.10;;;3.80;;
70148;SDS011;57514;52.164;5.282;2023-08-06T09:26:50;8.00;;;3.55;;
70148;SDS011;57514;52.164;5.282;2023-08-06T09:29:17;8.70;;;3.60;;
70148;SDS011;57514;52.164;5.282;2023-08-06T09:34:14;8.85;;;4.53;;
70148;SDS011;57514;52.164;5.282;2023-08-06T09:36:46;10.65;;;4.30;;
70148;SDS011;57514;52.164;5.282;2023-08-06T09:39:21;9.40;;;3.95;;
70148;SDS011;57514;52.164;5.282;2023-08-06T09:41:56;10.45;;;4.00;;
70148;SDS011;57514;52.164;5.282;2023-08-06T09:44:31;8.77;;;3.45;;
70148;SDS011;57514;52.164;5.282;2023-08-06T09:46:59;8.35;;;3.90;;
70148;SDS011;57514;52.164;5.282;2023-08-06T09:49:28;9.15;;;3.97;;
70148;SDS011;57514;52.164;5.282;2023-08-06T09:52:10;9.68;;;4.03;;
70148;SDS011;57514;52.164;5.282;2023-08-06T09:54:39;8.85;;;3.53;;
70148;SDS011;57514;52.164;5.282;2023-08-06T09:57:06;9.43;;;4.20;;
70148;SDS011;57514;52.164;5.282;2023-08-06T09:59:34;10.13;;;4.07;;
70148;SDS011;57514;52.164;5.282;2023-08-06T10:02:03;10.05;;;3.40;;
70148;SDS011;57514;52.164;5.282;2023-08-06T10:04:39;8.60;;;3.78;;
70148;SDS011;57514;52.164;5.282;2023-08-06T10:07:07;10.45;;;4.13;;
70148;SDS011;57514;52.164;5.282;2023-08-06T10:09:35;11.20;;;3.90;;
70148;SDS011;57514;52.164;5.282;2023-08-06T10:12:03;10.02;;;4.05;;
70148;SDS011;57514;52.164;5.282;2023-08-06T10:14:32;9.48;;;3.45;;
70148;SDS011;57514;52.164;5.282;2023-08-06T10:17:02;8.90;;;3.75;;
70148;SDS011;57514;52.164;5.282;2023-08-06T10:19:29;9.65;;;3.92;;
70148;SDS011;57514;52.164;5.282;2023-08-06T10:22:13;10.88;;;3.58;;
70148;SDS011;57514;52.164;5.282;2023-08-06T10:24:51;10.93;;;3.53;;
70148;SDS011;57514;52.164;5.282;2023-08-06T10:27:21;10.57;;;3.72;;
70148;SDS011;57514;52.164;5.282;2023-08-06T10:29:48;10.48;;;3.50;;
70148;SDS011;57514;52.164;5.282;2023-08-06T10:32:16;10.60;;;3.80;;
70148;SDS011;57514;52.164;5.282;2023-08-06T10:34:54;8.25;;;3.03;;
70148;SDS011;57514;52.164;5.282;2023-08-06T10:37:34;9.40;;;3.40;;
70148;SDS011;57514;52.164;5.282;2023-08-06T10:40:02;7.80;;;3.20;;
70148;SDS011;57514;52.164;5.282;2023-08-06T10:42:32;8.88;;;2.95;;
70148;SDS011;57514;52.164;5.282;2023-08-06T10:45:12;9.07;;;3.40;;
70148;SDS011;57514;52.164;5.282;2023-08-06T10:47:43;9.07;;;3.25;;
70148;SDS011;57514;52.164;5.282;2023-08-06T10:50:11;10.35;;;3.55;;
70148;SDS011;57514;52.164;5.282;2023-08-06T10:52:40;9.88;;;3.10;;
70148;SDS011;57514;52.164;5.282;2023-08-06T10:55:07;8.77;;;2.83;;
70148;SDS011;57514;52.164;5.282;2023-08-06T10:57:35;9.18;;;2.75;;
70148;SDS011;57514;52.164;5.282;2023-08-06T11:00:04;8.32;;;2.50;;
70148;SDS011;57514;52.164;5.282;2023-08-06T11:02:43;5.78;;;2.13;;
70148;SDS011;57514;52.164;5.282;2023-08-06T11:05:10;4.88;;;2.08;;
70148;SDS011;57514;52.164;5.282;2023-08-06T11:07:38;10.30;;;2.60;;
70148;SDS011;57514;52.164;5.282;2023-08-06T11:10:06;6.38;;;2.15;;
70148;SDS011;57514;52.164;5.282;2023-08-06T11:12:35;7.05;;;2.78;;
70148;SDS011;57514;52.164;5.282;2023-08-06T11:15:03;6.53;;;2.40;;
70148;SDS011;57514;52.164;5.282;2023-08-06T11:17:31;7.22;;;2.70;;
70148;SDS011;57514;52.164;5.282;2023-08-06T11:20:00;8.63;;;2.30;;
70148;SDS011;57514;52.164;5.282;2023-08-06T11:22:27;5.85;;;2.00;;
70148;SDS011;57514;52.164;5.282;2023-08-06T11:24:54;5.40;;;2.38;;
70148;SDS011;57514;52.164;5.282;2023-08-06T11:27:22;5.63;;;2.17;;
70148;SDS011;57514;52.164;5.282;2023-08-06T11:29:49;7.72;;;2.30;;
70148;SDS011;57514;52.164;5.282;2023-08-06T11:32:16;6.60;;;2.05;;
70148;SDS011;57514;52.164;5.282;2023-08-06T11:34:44;5.47;;;1.90;;
70148;SDS011;57514;52.164;5.282;2023-08-06T11:37:11;7.80;;;2.28;;
70148;SDS011;57514;52.164;5.282;2023-08-06T11:39:38;5.85;;;2.10;;
70148;SDS011;57514;52.164;5.282;2023-08-06T11:42:06;5.60;;;2.10;;
70148;SDS011;57514;52.164;5.282;2023-08-06T11:44:36;10.15;;;2.40;;
70148;SDS011;57514;52.164;5.282;2023-08-06T11:54:45;5.15;;;2.03;;
70148;SDS011;57514;52.164;5.282;2023-08-06T11:57:30;4.85;;;2.00;;
70148;SDS011;57514;52.164;5.282;2023-08-06T12:00:04;7.00;;;1.60;;
70148;SDS011;57514;52.164;5.282;2023-08-06T12:02:42;8.05;;;1.75;;
70148;SDS011;57514;52.164;5.282;2023-08-06T12:05:11;4.70;;;1.58;;
70148;SDS011;57514;52.164;5.282;2023-08-06T12:07:47;5.57;;;1.90;;
70148;SDS011;57514;52.164;5.282;2023-08-06T12:10:15;6.05;;;1.90;;
70148;SDS011;57514;52.164;5.282;2023-08-06T12:12:42;4.50;;;1.50;;
70148;SDS011;57514;52.164;5.282;2023-08-06T12:15:10;6.40;;;2.20;;
70148;SDS011;57514;52.164;5.282;2023-08-06T12:17:38;6.05;;;1.73;;
70148;SDS011;57514;52.164;5.282;2023-08-06T12:20:05;3.65;;;1.35;;
70148;SDS011;57514;52.164;5.282;2023-08-06T12:22:34;5.30;;;1.70;;
70148;SDS011;57514;52.164;5.282;2023-08-06T12:25:02;7.90;;;1.90;;
70148;SDS011;57514;52.164;5.282;2023-08-06T12:27:30;4.13;;;1.55;;
70148;SDS011;57514;52.164;5.282;2023-08-06T12:29:57;5.80;;;1.73;;
70148;SDS011;57514;52.164;5.282;2023-08-06T12:32:24;5.72;;;1.60;;
70148;SDS011;57514;52.164;5.282;2023-08-06T12:34:51;6.47;;;1.60;;
70148;SDS011;57514;52.164;5.282;2023-08-06T12:37:19;5.05;;;1.90;;
70148;SDS011;57514;52.164;5.282;2023-08-06T12:39:46;5.75;;;2.10;;
70148;SDS011;57514;52.164;5.282;2023-08-06T12:42:14;6.30;;;1.73;;
70148;SDS011;57514;52.164;5.282;2023-08-06T12:44:41;4.15;;;1.42;;
70148;SDS011;57514;52.164;5.282;2023-08-06T12:47:08;3.53;;;1.58;;
70148;SDS011;57514;52.164;5.282;2023-08-06T12:49:36;7.78;;;2.28;;
70148;SDS011;57514;52.164;5.282;2023-08-06T12:52:03;7.60;;;2.58;;
70148;SDS011;57514;52.164;5.282;2023-08-06T12:54:32;7.18;;;2.38;;
70148;SDS011;57514;52.164;5.282;2023-08-06T12:57:03;8.95;;;2.20;;
70148;SDS011;57514;52.164;5.282;2023-08-06T12:59:30;6.90;;;2.22;;
70148;SDS011;57514;52.164;5.282;2023-08-06T13:01:59;6.65;;;2.20;;
70148;SDS011;57514;52.164;5.282;2023-08-06T13:04:27;7.13;;;2.58;;
70148;SDS011;57514;52.164;5.282;2023-08-06T13:06:54;6.60;;;2.20;;
70148;SDS011;57514;52.164;5.282;2023-08-06T13:09:21;6.70;;;2.33;;
70148;SDS011;57514;52.164;5.282;2023-08-06T13:11:49;8.25;;;2.15;;
70148;SDS011;57514;52.164;5.282;2023-08-06T13:14:17;6.03;;;2.10;;
70148;SDS011;57514;52.164;5.282;2023-08-06T13:16:44;5.05;;;1.98;;
70148;SDS011;57514;52.164;5.282;2023-08-06T13:19:11;7.15;;;2.03;;
70148;SDS011;57514;52.164;5.282;2023-08-06T13:24:10;5.93;;;1.85;;
70148;SDS011;57514;52.164;5.282;2023-08-06T13:26:38;7.05;;;1.90;;
70148;SDS011;57514;52.164;5.282;2023-08-06T13:29:05;7.10;;;1.77;;
70148;SDS011;57514;52.164;5.282;2023-08-06T13:31:33;6.18;;;1.88;;
70148;SDS011;57514;52.164;5.282;2023-08-06T13:34:01;7.07;;;2.33;;
70148;SDS011;57514;52.164;5.282;2023-08-06T13:36:28;5.88;;;1.90;;
70148;SDS011;57514;52.164;5.282;2023-08-06T13:38:55;5.43;;;1.95;;
70148;SDS011;57514;52.164;5.282;2023-08-06T13:41:23;5.10;;;1.88;;
70148;SDS011;57514;52.164;5.282;2023-08-06T13:43:53;5.65;;;2.05;;
70148;SDS011;57514;52.164;5.282;2023-08-06T13:46:21;9.27;;;2.10;;
70148;SDS011;57514;52.164;5.282;2023-08-06T13:48:48;6.88;;;2.33;;
70148;SDS011;57514;52.164;5.282;2023-08-06T13:51:18;7.40;;;2.10;;
70148;SDS011;57514;52.164;5.282;2023-08-06T13:53:46;5.53;;;1.85;;
70148;SDS011;57514;52.164;5.282;2023-08-06T13:56:13;6.35;;;2.33;;
70148;SDS011;57514;52.164;5.282;2023-08-06T13:58:44;5.40;;;1.98;;
70148;SDS011;57514;52.164;5.282;2023-08-06T14:01:11;7.15;;;1.98;;
70148;SDS011;57514;52.164;5.282;2023-08-06T14:03:39;6.85;;;2.17;;
70148;SDS011;57514;52.164;5.282;2023-08-06T14:06:07;6.05;;;2.20;;
70148;SDS011;57514;52.164;5.282;2023-08-06T14:08:34;7.60;;;2.08;;
70148;SDS011;57514;52.164;5.282;2023-08-06T14:11:01;5.82;;;2.25;;
70148;SDS011;57514;52.164;5.282;2023-08-06T14:13:29;6.82;;;2.38;;
70148;SDS011;57514;52.164;5.282;2023-08-06T14:15:56;6.47;;;2.20;;
70148;SDS011;57514;52.164;5.282;2023-08-06T14:18:24;7.78;;;1.88;;
70148;SDS011;57514;52.164;5.282;2023-08-06T14:20:51;7.20;;;2.17;;
70148;SDS011;57514;52.164;5.282;2023-08-06T14:23:19;5.70;;;2.08;;
70148;SDS011;57514;52.164;5.282;2023-08-06T14:25:46;5.93;;;1.67;;
70148;SDS011;57514;52.164;5.282;2023-08-06T14:28:13;3.72;;;1.75;;
70148;SDS011;57514;52.164;5.282;2023-08-06T14:30:41;6.15;;;1.80;;
70148;SDS011;57514;52.164;5.282;2023-08-06T14:33:08;6.15;;;2.17;;
70148;SDS011;57514;52.164;5.282;2023-08-06T14:35:50;5.13;;;2.05;;
70148;SDS011;57514;52.164;5.282;2023-08-06T14:38:17;4.28;;;1.83;;
70148;SDS011;57514;52.164;5.282;2023-08-06T14:40:44;4.75;;;1.80;;
70148;SDS011;57514;52.164;5.282;2023-08-06T14:43:12;6.57;;;1.83;;
70148;SDS011;57514;52.164;5.282;2023-08-06T14:45:41;5.85;;;1.90;;
70148;SDS011;57514;52.164;5.282;2023-08-06T14:48:08;5.00;;;2.05;;
70148;SDS011;57514;52.164;5.282;2023-08-06T14:50:35;5.82;;;2.15;;
70148;SDS011;57514;52.164;5.282;2023-08-06T14:53:03;4.80;;;2.00;;
70148;SDS011;57514;52.164;5.282;2023-08-06T14:55:31;5.38;;;1.92;;
70148;SDS011;57514;52.164;5.282;2023-08-06T14:58:00;8.85;;;2.25;;
70148;SDS011;57514;52.164;5.282;2023-08-06T15:00:29;5.43;;;2.08;;